createdAt,value
2016-11-10T00:00:22.332Z,0
2016-11-10T00:01:22.309Z,0
2016-11-10T00:02:22.560Z,0
2016-11-10T00:03:22.587Z,0
2016-11-10T00:04:22.319Z,0
2016-11-10T00:05:22.575Z,0
2016-11-10T00:06:22.648Z,0
2016-11-10T00:07:22.501Z,0
2016-11-10T00:08:22.412Z,0
2016-11-10T00:09:22.888Z,0
2016-11-10T00:10:22.443Z,0
2016-11-10T00:11:22.434Z,0
2016-11-10T00:12:22.346Z,0
2016-11-10T00:13:22.480Z,0
2016-11-10T00:14:22.893Z,0
2016-11-10T00:15:22.274Z,0
2016-11-10T00:16:22.393Z,0
2016-11-10T00:17:22.514Z,0
2016-11-10T00:18:22.536Z,0
2016-11-10T00:19:22.924Z,0
2016-11-10T00:20:22.483Z,0
2016-11-10T00:21:22.341Z,0
2016-11-10T00:22:22.414Z,0
2016-11-10T00:23:23.339Z,0
2016-11-10T00:24:22.372Z,0
2016-11-10T00:25:22.483Z,0
2016-11-10T00:26:22.390Z,0
2016-11-10T00:27:22.353Z,0
2016-11-10T00:28:22.887Z,0
2016-11-10T00:29:22.439Z,0
2016-11-10T00:30:22.514Z,0
2016-11-10T00:31:22.440Z,0
2016-11-10T00:32:22.475Z,0
2016-11-10T00:33:22.511Z,0
2016-11-10T00:34:22.358Z,0
2016-11-10T00:35:22.427Z,0
2016-11-10T00:36:22.786Z,0
2016-11-10T00:37:22.461Z,0
2016-11-10T00:38:22.410Z,0
2016-11-10T00:39:22.471Z,0
2016-11-10T00:40:22.390Z,0
2016-11-10T00:41:22.427Z,0
2016-11-10T00:42:22.505Z,0
2016-11-10T00:43:22.439Z,0
2016-11-10T00:44:23.281Z,0
2016-11-10T00:45:23.006Z,0
2016-11-10T00:46:22.430Z,0
2016-11-10T00:47:22.749Z,0
2016-11-10T00:48:22.387Z,0
2016-11-10T00:49:22.608Z,0
2016-11-10T00:50:22.385Z,0
2016-11-10T00:51:22.330Z,0
2016-11-10T00:52:22.390Z,0
2016-11-10T00:53:22.935Z,0
2016-11-10T00:54:22.421Z,0
2016-11-10T00:55:22.458Z,0
2016-11-10T00:56:22.361Z,0
2016-11-10T00:57:22.621Z,0
2016-11-10T00:58:22.486Z,0
2016-11-10T00:59:22.336Z,0
2016-11-10T01:00:22.336Z,0
2016-11-10T01:01:22.553Z,0
2016-11-10T01:02:22.366Z,0
2016-11-10T01:03:22.355Z,0
2016-11-10T01:04:22.450Z,0
2016-11-10T01:05:22.495Z,0
2016-11-10T01:06:22.310Z,0
2016-11-10T01:07:22.519Z,0
2016-11-10T01:08:22.562Z,0
2016-11-10T01:09:22.374Z,0
2016-11-10T01:10:23.084Z,0
2016-11-10T01:11:22.335Z,0
2016-11-10T01:12:22.346Z,0
2016-11-10T01:13:22.738Z,0
2016-11-10T01:14:22.461Z,0
2016-11-10T01:15:22.367Z,0
2016-11-10T01:16:22.390Z,0
2016-11-10T01:17:22.684Z,0
2016-11-10T01:18:22.507Z,0
2016-11-10T01:19:22.350Z,0
2016-11-10T01:20:22.363Z,0
2016-11-10T01:21:22.367Z,0
2016-11-10T01:22:22.337Z,0
2016-11-10T01:23:22.452Z,0
2016-11-10T01:24:22.386Z,0
2016-11-10T01:25:22.439Z,0
2016-11-10T01:26:22.387Z,0
2016-11-10T01:27:22.420Z,0
2016-11-10T01:28:22.352Z,0
2016-11-10T01:29:22.362Z,0
2016-11-10T01:30:22.394Z,0
2016-11-10T01:31:22.407Z,0
2016-11-10T01:32:22.492Z,0
2016-11-10T01:33:22.359Z,0
2016-11-10T01:34:22.729Z,0
2016-11-10T01:35:22.374Z,0
2016-11-10T01:36:22.396Z,0
2016-11-10T01:37:22.372Z,0
2016-11-10T01:38:22.550Z,0
2016-11-10T01:39:22.314Z,0
2016-11-10T01:40:22.614Z,0
2016-11-10T01:41:22.754Z,0
2016-11-10T01:42:22.375Z,0
2016-11-10T01:43:22.416Z,0
2016-11-10T01:44:22.749Z,0
2016-11-10T01:45:22.402Z,0
2016-11-10T01:46:22.351Z,0
2016-11-10T01:47:22.550Z,0
2016-11-10T01:48:22.454Z,0
2016-11-10T01:49:22.349Z,0
2016-11-10T01:50:22.603Z,0
2016-11-10T01:51:22.355Z,0
2016-11-10T01:52:22.460Z,0
2016-11-10T01:53:22.368Z,0
2016-11-10T01:54:22.431Z,0
2016-11-10T01:55:22.381Z,0
2016-11-10T01:56:22.633Z,0
2016-11-10T01:57:22.591Z,0
2016-11-10T01:58:22.414Z,0
2016-11-10T01:59:22.631Z,0
2016-11-10T02:00:22.542Z,0
2016-11-10T02:01:22.406Z,0
2016-11-10T02:02:22.636Z,0
2016-11-10T02:03:22.486Z,0
2016-11-10T02:04:22.705Z,0
2016-11-10T02:05:22.634Z,0
2016-11-10T02:06:22.456Z,0
2016-11-10T02:07:22.358Z,0
2016-11-10T02:08:22.403Z,0
2016-11-10T02:09:22.476Z,0
2016-11-10T02:10:22.471Z,0
2016-11-10T02:11:22.441Z,0
2016-11-10T02:12:22.721Z,0
2016-11-10T02:13:22.617Z,0
2016-11-10T02:14:22.383Z,0
2016-11-10T02:15:22.409Z,0
2016-11-10T02:16:22.762Z,0
2016-11-10T02:17:22.394Z,0
2016-11-10T02:18:22.407Z,0
2016-11-10T02:19:22.399Z,0
2016-11-10T02:20:22.862Z,0
2016-11-10T02:21:22.399Z,0
2016-11-10T02:22:22.550Z,0
2016-11-10T02:23:22.912Z,0
2016-11-10T02:24:22.405Z,0
2016-11-10T02:25:22.545Z,0
2016-11-10T02:26:23.137Z,0
2016-11-10T02:27:22.716Z,0
2016-11-10T02:28:22.419Z,0
2016-11-10T02:29:22.439Z,0
2016-11-10T02:30:23.722Z,0
2016-11-10T02:31:22.643Z,0
2016-11-10T02:32:22.768Z,0
2016-11-10T02:33:22.512Z,0
2016-11-10T02:34:22.457Z,0
2016-11-10T02:35:22.566Z,0
2016-11-10T02:36:22.604Z,0
2016-11-10T02:37:22.421Z,0
2016-11-10T02:38:22.444Z,0
2016-11-10T02:39:22.410Z,0
2016-11-10T02:40:23.122Z,0
2016-11-10T02:41:22.591Z,0
2016-11-10T02:42:22.400Z,0
2016-11-10T02:43:23.445Z,0
2016-11-10T02:44:22.384Z,0
2016-11-10T02:45:22.547Z,0
2016-11-10T02:46:22.723Z,0
2016-11-10T02:47:22.627Z,0
2016-11-10T02:48:22.423Z,0
2016-11-10T02:49:22.403Z,0
2016-11-10T02:50:22.720Z,0
2016-11-10T02:51:22.413Z,0
2016-11-10T02:52:22.434Z,0
2016-11-10T02:53:22.760Z,0
2016-11-10T02:54:22.526Z,0
2016-11-10T02:55:22.416Z,0
2016-11-10T02:56:22.635Z,0
2016-11-10T02:57:22.526Z,0
2016-11-10T02:58:23.413Z,0
2016-11-10T02:59:22.713Z,0
2016-11-10T03:00:22.485Z,0
2016-11-10T03:01:22.667Z,0
2016-11-10T03:02:22.592Z,0
2016-11-10T03:03:22.536Z,0
2016-11-10T03:04:22.400Z,0
2016-11-10T03:05:22.784Z,0
2016-11-10T03:06:22.627Z,0
2016-11-10T03:07:22.429Z,0
2016-11-10T03:08:22.411Z,0
2016-11-10T03:09:22.379Z,0
2016-11-10T03:10:22.613Z,0
2016-11-10T03:11:22.418Z,0
2016-11-10T03:12:22.400Z,0
2016-11-10T03:13:22.443Z,0
2016-11-10T03:14:22.425Z,0
2016-11-10T03:15:22.421Z,0
2016-11-10T03:16:22.400Z,0
2016-11-10T03:17:22.595Z,0
2016-11-10T03:18:22.697Z,0
2016-11-10T03:19:22.413Z,0
2016-11-10T03:20:22.391Z,0
2016-11-10T03:21:22.456Z,0
2016-11-10T03:22:23.618Z,0
2016-11-10T03:23:22.456Z,0
2016-11-10T03:24:23.040Z,0
2016-11-10T03:25:22.459Z,0
2016-11-10T03:26:22.459Z,0
2016-11-10T03:27:22.448Z,0
2016-11-10T03:28:22.451Z,0
2016-11-10T03:29:22.667Z,0
2016-11-10T03:30:22.428Z,0
2016-11-10T03:31:22.501Z,0
2016-11-10T03:32:22.435Z,0
2016-11-10T03:33:22.438Z,0
2016-11-10T03:34:22.466Z,0
2016-11-10T03:35:22.426Z,0
2016-11-10T03:36:23.080Z,0
2016-11-10T03:37:22.488Z,0
2016-11-10T03:38:22.445Z,0
2016-11-10T03:39:22.555Z,0
2016-11-10T03:40:22.443Z,0
2016-11-10T03:41:22.560Z,0
2016-11-10T03:42:22.464Z,0
2016-11-10T03:43:22.476Z,0
2016-11-10T03:44:22.738Z,0
2016-11-10T03:45:22.514Z,0
2016-11-10T03:46:22.504Z,0
2016-11-10T03:47:22.447Z,0
2016-11-10T03:48:22.509Z,0
2016-11-10T03:49:22.524Z,0
2016-11-10T03:50:22.501Z,0
2016-11-10T03:51:22.460Z,0
2016-11-10T03:52:22.490Z,0
2016-11-10T03:53:22.691Z,0
2016-11-10T03:54:22.458Z,0
2016-11-10T03:55:22.508Z,0
2016-11-10T03:56:22.455Z,0
2016-11-10T03:57:22.499Z,0
2016-11-10T03:58:22.480Z,0
2016-11-10T03:59:22.569Z,0
2016-11-10T04:00:22.556Z,0
2016-11-10T04:01:22.502Z,0
2016-11-10T04:02:22.865Z,0
2016-11-10T04:03:22.641Z,0
2016-11-10T04:04:22.588Z,0
2016-11-10T04:05:22.761Z,0
2016-11-10T04:06:22.563Z,0
2016-11-10T04:07:22.639Z,0
2016-11-10T04:08:23.034Z,0
2016-11-10T04:09:22.684Z,0
2016-11-10T04:10:22.639Z,0
2016-11-10T04:11:22.483Z,0
2016-11-10T04:12:22.500Z,0
2016-11-10T04:13:22.484Z,0
2016-11-10T04:14:22.867Z,0
2016-11-10T04:15:22.454Z,0
2016-11-10T04:16:22.388Z,0
2016-11-10T04:17:22.554Z,0
2016-11-10T04:18:22.576Z,0
2016-11-10T04:19:22.543Z,0
2016-11-10T04:20:23.463Z,0
2016-11-10T04:21:22.485Z,0
2016-11-10T04:22:22.416Z,0
2016-11-10T04:23:22.728Z,0
2016-11-10T04:24:22.545Z,0
2016-11-10T04:25:22.480Z,0
2016-11-10T04:26:22.510Z,0
2016-11-10T04:27:22.517Z,0
2016-11-10T04:28:22.554Z,0
2016-11-10T04:29:22.467Z,0
2016-11-10T04:31:01.997Z,0
2016-11-10T04:31:22.517Z,0
2016-11-10T04:32:22.451Z,0
2016-11-10T04:33:22.523Z,0
2016-11-10T04:34:22.542Z,0
2016-11-10T04:35:22.587Z,0
2016-11-10T04:36:22.548Z,0
2016-11-10T04:37:22.487Z,0
2016-11-10T04:38:22.702Z,0
2016-11-10T04:39:22.503Z,0
2016-11-10T04:40:22.493Z,0
2016-11-10T04:41:22.854Z,0
2016-11-10T04:42:22.490Z,0
2016-11-10T04:43:22.656Z,0
2016-11-10T04:44:22.465Z,0
2016-11-10T04:45:22.700Z,0
2016-11-10T04:46:22.503Z,0
2016-11-10T04:47:22.491Z,0
2016-11-10T04:48:22.624Z,0
2016-11-10T04:49:22.471Z,0
2016-11-10T04:50:22.463Z,0
2016-11-10T04:51:22.511Z,0
2016-11-10T04:52:22.463Z,0
2016-11-10T04:53:22.692Z,0
2016-11-10T04:54:22.552Z,0
2016-11-10T04:55:22.471Z,0
2016-11-10T04:56:23.691Z,0
2016-11-10T04:57:22.555Z,0
2016-11-10T04:58:22.505Z,0
2016-11-10T04:59:23.091Z,0
2016-11-10T05:00:22.536Z,0
2016-11-10T05:01:22.570Z,0
2016-11-10T05:02:22.676Z,0
2016-11-10T05:03:22.543Z,0
2016-11-10T05:04:22.577Z,0
2016-11-10T05:05:22.642Z,0
2016-11-10T05:06:22.908Z,0
2016-11-10T05:07:22.699Z,0
2016-11-10T05:08:22.539Z,0
2016-11-10T05:09:22.978Z,0
2016-11-10T05:10:22.883Z,0
2016-11-10T05:11:22.796Z,0
2016-11-10T05:12:22.584Z,0
2016-11-10T05:13:23.442Z,0
2016-11-10T05:14:22.837Z,0
2016-11-10T05:15:22.476Z,0
2016-11-10T05:16:22.600Z,0
2016-11-10T05:17:22.936Z,0
2016-11-10T05:18:22.592Z,0
2016-11-10T05:19:22.537Z,0
2016-11-10T05:20:22.528Z,0
2016-11-10T05:21:22.656Z,0
2016-11-10T05:22:22.558Z,0
2016-11-10T05:23:22.622Z,0
2016-11-10T05:24:22.613Z,0
2016-11-10T05:25:22.574Z,0
2016-11-10T05:26:22.509Z,0
2016-11-10T05:27:22.528Z,0
2016-11-10T05:28:22.548Z,0
2016-11-10T05:29:22.645Z,0
2016-11-10T05:30:22.510Z,0
2016-11-10T05:31:22.582Z,0
2016-11-10T05:32:22.578Z,0
2016-11-10T05:33:22.591Z,0
2016-11-10T05:34:22.578Z,0
2016-11-10T05:35:22.672Z,0
2016-11-10T05:36:22.650Z,0
2016-11-10T05:37:22.598Z,0
2016-11-10T05:38:22.620Z,0
2016-11-10T05:39:22.532Z,0
2016-11-10T05:40:22.629Z,0
2016-11-10T05:41:23.851Z,0
2016-11-10T05:42:22.598Z,0
2016-11-10T05:43:22.618Z,0
2016-11-10T05:44:22.665Z,0
2016-11-10T05:45:22.655Z,0
2016-11-10T05:46:22.579Z,0
2016-11-10T05:47:22.633Z,0
2016-11-10T05:48:22.559Z,0
2016-11-10T05:49:23.468Z,0
2016-11-10T05:50:22.556Z,0
2016-11-10T05:51:22.561Z,0
2016-11-10T05:52:22.498Z,0
2016-11-10T05:53:22.604Z,0
2016-11-10T05:54:22.537Z,0
2016-11-10T05:55:22.536Z,0
2016-11-10T05:56:22.591Z,0
2016-11-10T05:57:22.642Z,0
2016-11-10T05:58:22.633Z,0
2016-11-10T05:59:22.632Z,0
2016-11-10T06:00:22.671Z,0
2016-11-10T06:01:22.629Z,0
2016-11-10T06:02:22.598Z,0
2016-11-10T06:03:22.656Z,0
2016-11-10T06:04:22.597Z,0
2016-11-10T06:05:22.610Z,0
2016-11-10T06:06:23.577Z,0
2016-11-10T06:07:22.588Z,0
2016-11-10T06:08:22.623Z,0
2016-11-10T06:09:22.598Z,0
2016-11-10T06:10:22.548Z,0
2016-11-10T06:11:22.521Z,0
2016-11-10T06:12:22.530Z,0
2016-11-10T06:13:22.557Z,0
2016-11-10T06:14:22.570Z,0
2016-11-10T06:15:22.764Z,0
2016-11-10T06:16:22.576Z,0
2016-11-10T06:17:22.649Z,0
2016-11-10T06:18:22.565Z,0
2016-11-10T06:19:22.680Z,0
2016-11-10T06:20:22.570Z,0
2016-11-10T06:21:22.573Z,0
2016-11-10T06:22:22.614Z,0
2016-11-10T06:23:22.609Z,0
2016-11-10T06:24:22.652Z,0
2016-11-10T06:25:22.591Z,0
2016-11-10T06:26:22.625Z,0
2016-11-10T06:27:22.579Z,0
2016-11-10T06:28:22.711Z,0
2016-11-10T06:29:22.704Z,0
2016-11-10T06:30:22.776Z,0
2016-11-10T06:31:22.976Z,0
2016-11-10T06:32:22.540Z,0
2016-11-10T06:33:22.935Z,0
2016-11-10T06:34:22.886Z,0
2016-11-10T06:35:22.787Z,0
2016-11-10T06:36:22.658Z,0
2016-11-10T06:37:22.736Z,0
2016-11-10T06:38:22.906Z,0
2016-11-10T06:39:22.673Z,0
2016-11-10T06:40:22.575Z,0
2016-11-10T06:41:22.696Z,0
2016-11-10T06:42:22.576Z,0
2016-11-10T06:43:22.657Z,0
2016-11-10T06:44:22.590Z,0
2016-11-10T06:45:22.674Z,0
2016-11-10T06:46:22.610Z,0
2016-11-10T06:47:22.582Z,0
2016-11-10T06:48:22.624Z,0
2016-11-10T06:49:22.658Z,0
2016-11-10T06:50:22.562Z,0
2016-11-10T06:51:22.535Z,0
2016-11-10T06:52:22.642Z,0
2016-11-10T06:53:22.679Z,0
2016-11-10T06:54:22.738Z,5
2016-11-10T06:55:22.685Z,5
2016-11-10T06:56:22.697Z,5
2016-11-10T06:57:22.774Z,5
2016-11-10T06:58:22.607Z,5
2016-11-10T06:59:22.869Z,5
2016-11-10T07:00:22.618Z,5
2016-11-10T07:01:22.522Z,5
2016-11-10T07:02:22.588Z,5
2016-11-10T07:03:22.624Z,5
2016-11-10T07:04:22.608Z,5
2016-11-10T07:05:22.578Z,5
2016-11-10T07:06:22.570Z,5
2016-11-10T07:07:22.582Z,5
2016-11-10T07:08:22.585Z,5
2016-11-10T07:09:23.017Z,5
2016-11-10T07:10:22.602Z,5
2016-11-10T07:11:22.588Z,10
2016-11-10T07:12:22.565Z,10
2016-11-10T07:13:22.605Z,10
2016-11-10T07:14:22.578Z,10
2016-11-10T07:15:22.647Z,10
2016-11-10T07:16:22.605Z,15
2016-11-10T07:17:49.253Z,15
2016-11-10T07:18:22.610Z,15
2016-11-10T07:19:22.569Z,10
2016-11-10T07:20:22.580Z,10
2016-11-10T07:21:22.598Z,10
2016-11-10T07:22:22.588Z,10
2016-11-10T07:23:22.594Z,10
2016-11-10T07:24:22.555Z,10
2016-11-10T07:25:22.555Z,10
2016-11-10T07:26:22.598Z,10
2016-11-10T07:27:22.613Z,10
2016-11-10T07:28:22.725Z,10
2016-11-10T07:29:22.621Z,10
2016-11-10T07:30:22.575Z,10
2016-11-10T07:31:22.621Z,5
2016-11-10T07:32:22.553Z,5
2016-11-10T07:33:22.602Z,5
2016-11-10T07:34:22.617Z,5
2016-11-10T07:35:22.627Z,5
2016-11-10T07:36:23.238Z,5
2016-11-10T07:37:22.583Z,10
2016-11-10T07:38:22.595Z,10
2016-11-10T07:39:22.623Z,10
2016-11-10T07:40:22.685Z,10
2016-11-10T07:41:22.576Z,10
2016-11-10T07:42:22.558Z,10
2016-11-10T07:43:22.591Z,15
2016-11-10T07:44:22.653Z,15
2016-11-10T07:45:22.559Z,15
2016-11-10T07:46:22.565Z,15
2016-11-10T07:47:22.588Z,15
2016-11-10T07:48:22.579Z,15
2016-11-10T07:49:22.615Z,15
2016-11-10T07:50:22.576Z,15
2016-11-10T07:51:22.598Z,15
2016-11-10T07:52:22.584Z,15
2016-11-10T07:53:22.611Z,15
2016-11-10T07:54:22.622Z,15
2016-11-10T07:55:22.596Z,15
2016-11-10T07:56:22.592Z,15
2016-11-10T07:57:22.613Z,15
2016-11-10T07:58:22.716Z,15
2016-11-10T07:59:22.570Z,15
2016-11-10T08:00:22.575Z,15
2016-11-10T08:01:22.630Z,20
2016-11-10T08:02:22.632Z,20
2016-11-10T08:03:22.620Z,20
2016-11-10T08:04:23.708Z,20
2016-11-10T08:05:22.613Z,20
2016-11-10T08:06:22.706Z,20
2016-11-10T08:07:22.747Z,20
2016-11-10T08:08:23.395Z,20
2016-11-10T08:09:22.643Z,20
2016-11-10T08:10:23.431Z,25
2016-11-10T08:11:22.694Z,25
2016-11-10T08:12:22.696Z,25
2016-11-10T08:13:22.622Z,25
2016-11-10T08:14:22.614Z,25
2016-11-10T08:15:22.592Z,25
2016-11-10T08:16:22.646Z,25
2016-11-10T08:17:22.690Z,25
2016-11-10T08:18:22.671Z,25
2016-11-10T08:19:22.655Z,30
2016-11-10T08:20:22.642Z,30
2016-11-10T08:21:22.670Z,30
2016-11-10T08:22:22.772Z,35
2016-11-10T08:23:24.400Z,35
2016-11-10T08:24:22.685Z,40
2016-11-10T08:25:22.664Z,40
2016-11-10T08:26:22.666Z,45
2016-11-10T08:27:22.767Z,45
2016-11-10T08:28:23.500Z,45
2016-11-10T08:29:22.712Z,50
2016-11-10T08:30:22.675Z,50
2016-11-10T08:31:26.581Z,50
2016-11-10T08:32:22.661Z,45
2016-11-10T08:33:22.665Z,45
2016-11-10T08:34:22.648Z,40
2016-11-10T08:35:22.678Z,40
2016-11-10T08:36:22.758Z,40
2016-11-10T08:37:22.683Z,40
2016-11-10T08:38:22.745Z,45
2016-11-10T08:39:22.704Z,45
2016-11-10T08:40:22.721Z,45
2016-11-10T08:41:22.647Z,50
2016-11-10T08:42:22.824Z,55
2016-11-10T08:43:22.840Z,60
2016-11-10T08:44:22.619Z,60
2016-11-10T08:45:22.659Z,65
2016-11-10T08:46:22.654Z,65
2016-11-10T08:47:22.631Z,70
2016-11-10T08:48:22.638Z,75
2016-11-10T08:49:22.647Z,75
2016-11-10T08:50:22.651Z,80
2016-11-10T08:51:22.637Z,80
2016-11-10T08:52:22.722Z,80
2016-11-10T08:53:22.667Z,75
2016-11-10T08:54:22.665Z,75
2016-11-10T08:55:22.618Z,75
2016-11-10T08:56:22.633Z,75
2016-11-10T08:57:22.667Z,75
2016-11-10T08:58:22.648Z,70
2016-11-10T08:59:22.696Z,65
2016-11-10T09:00:22.721Z,60
2016-11-10T09:01:22.679Z,50
2016-11-10T09:02:22.722Z,50
2016-11-10T09:03:22.754Z,60
2016-11-10T09:04:22.698Z,65
2016-11-10T09:05:22.724Z,70
2016-11-10T09:06:22.759Z,75
2016-11-10T09:07:27.659Z,80
2016-11-10T09:08:25.905Z,80
2016-11-10T09:09:22.805Z,80
2016-11-10T09:10:22.751Z,80
2016-11-10T09:11:22.743Z,85
2016-11-10T09:12:22.663Z,85
2016-11-10T09:13:22.683Z,85
2016-11-10T09:14:23.071Z,85
2016-11-10T09:15:22.709Z,85
2016-11-10T09:16:22.709Z,85
2016-11-10T09:17:22.642Z,85
2016-11-10T09:18:22.721Z,90
2016-11-10T09:19:22.762Z,95
2016-11-10T09:20:22.769Z,95
2016-11-10T09:21:22.740Z,100
2016-11-10T09:22:22.780Z,100
2016-11-10T09:23:22.772Z,100
2016-11-10T09:24:22.756Z,100
2016-11-10T09:25:22.683Z,100
2016-11-10T09:26:22.682Z,100
2016-11-10T09:27:22.727Z,105
2016-11-10T09:28:22.696Z,105
2016-11-10T09:29:22.721Z,105
2016-11-10T09:30:22.873Z,100
2016-11-10T09:31:22.739Z,105
2016-11-10T09:32:23.316Z,110
2016-11-10T09:33:24.243Z,110
2016-11-10T09:34:24.091Z,110
2016-11-10T09:35:22.865Z,105
2016-11-10T09:36:22.707Z,105
2016-11-10T09:37:22.722Z,95
2016-11-10T09:38:22.831Z,90
2016-11-10T09:39:22.805Z,80
2016-11-10T09:40:22.768Z,75
2016-11-10T09:41:22.729Z,75
2016-11-10T09:42:22.694Z,70
2016-11-10T09:43:22.732Z,65
2016-11-10T09:44:22.707Z,65
2016-11-10T09:45:22.810Z,65
2016-11-10T09:46:22.729Z,65
2016-11-10T09:47:22.735Z,60
2016-11-10T09:48:22.754Z,60
2016-11-10T09:49:22.711Z,60
2016-11-10T09:50:22.709Z,60
2016-11-10T09:51:22.709Z,60
2016-11-10T09:52:22.726Z,60
2016-11-10T09:53:22.723Z,60
2016-11-10T09:54:22.678Z,65
2016-11-10T09:55:22.751Z,70
2016-11-10T09:56:22.774Z,80
2016-11-10T09:57:22.781Z,85
2016-11-10T09:58:22.734Z,85
2016-11-10T09:59:22.736Z,85
2016-11-10T10:00:22.799Z,95
2016-11-10T10:01:22.751Z,85
2016-11-10T10:02:22.706Z,80
2016-11-10T10:03:22.787Z,80
2016-11-10T10:04:22.752Z,75
2016-11-10T10:05:22.719Z,75
2016-11-10T10:06:22.758Z,65
2016-11-10T10:07:22.725Z,65
2016-11-10T10:08:22.726Z,65
2016-11-10T10:09:22.763Z,65
2016-11-10T10:10:22.754Z,70
2016-11-10T10:11:22.726Z,70
2016-11-10T10:12:22.722Z,75
2016-11-10T10:13:22.763Z,75
2016-11-10T10:14:22.694Z,75
2016-11-10T10:15:22.715Z,70
2016-11-10T10:16:22.719Z,70
2016-11-10T10:17:22.786Z,60
2016-11-10T10:18:22.800Z,55
2016-11-10T10:19:22.793Z,55
2016-11-10T10:20:22.759Z,60
2016-11-10T10:21:22.807Z,60
2016-11-10T10:22:22.841Z,60
2016-11-10T10:23:22.850Z,60
2016-11-10T10:24:22.773Z,55
2016-11-10T10:25:22.747Z,50
2016-11-10T10:26:22.753Z,55
2016-11-10T10:27:22.818Z,55
2016-11-10T10:28:22.901Z,55
2016-11-10T10:29:22.780Z,50
2016-11-10T10:30:22.706Z,45
2016-11-10T10:31:22.750Z,45
2016-11-10T10:32:22.776Z,45
2016-11-10T10:33:22.798Z,45
2016-11-10T10:34:22.729Z,50
2016-11-10T10:35:22.766Z,55
2016-11-10T10:36:23.198Z,55
2016-11-10T10:37:22.719Z,60
2016-11-10T10:38:22.830Z,60
2016-11-10T10:39:22.711Z,60
2016-11-10T10:40:22.779Z,60
2016-11-10T10:41:22.850Z,60
2016-11-10T10:42:22.788Z,60
2016-11-10T10:43:22.766Z,65
2016-11-10T10:44:22.761Z,70
2016-11-10T10:45:22.754Z,75
2016-11-10T10:46:22.723Z,85
2016-11-10T10:47:22.722Z,85
2016-11-10T10:48:22.748Z,90
2016-11-10T10:49:22.811Z,85
2016-11-10T10:50:22.748Z,85
2016-11-10T10:51:22.763Z,90
2016-11-10T10:52:22.778Z,95
2016-11-10T10:53:22.734Z,100
2016-11-10T10:54:22.760Z,105
2016-11-10T10:55:22.725Z,105
2016-11-10T10:56:22.702Z,105
2016-11-10T10:57:22.696Z,105
2016-11-10T10:58:22.748Z,100
2016-11-10T10:59:22.716Z,95
2016-11-10T11:00:22.763Z,95
2016-11-10T11:01:22.731Z,90
2016-11-10T11:02:22.782Z,85
2016-11-10T11:03:22.701Z,90
2016-11-10T11:04:22.738Z,95
2016-11-10T11:05:22.763Z,100
2016-11-10T11:06:22.719Z,100
2016-11-10T11:07:22.729Z,105
2016-11-10T11:08:22.763Z,105
2016-11-10T11:09:22.723Z,105
2016-11-10T11:10:22.721Z,105
2016-11-10T11:11:22.788Z,105
2016-11-10T11:12:22.765Z,105
2016-11-10T11:13:22.795Z,105
2016-11-10T11:14:22.760Z,100
2016-11-10T11:15:22.720Z,100
2016-11-10T11:16:22.788Z,95
2016-11-10T11:17:22.745Z,95
2016-11-10T11:18:22.841Z,95
2016-11-10T11:19:22.792Z,90
2016-11-10T11:20:22.852Z,85
2016-11-10T11:21:22.837Z,80
2016-11-10T11:22:22.758Z,80
2016-11-10T11:23:22.858Z,80
2016-11-10T11:24:22.814Z,85
2016-11-10T11:25:22.815Z,95
2016-11-10T11:26:22.805Z,100
2016-11-10T11:27:22.792Z,105
2016-11-10T11:28:22.776Z,100
2016-11-10T11:29:22.764Z,100
2016-11-10T11:30:22.757Z,100
2016-11-10T11:31:22.807Z,100
2016-11-10T11:32:22.777Z,100
2016-11-10T11:33:22.754Z,100
2016-11-10T11:34:22.801Z,100
2016-11-10T11:35:22.776Z,105
2016-11-10T11:36:22.786Z,105
2016-11-10T11:37:22.815Z,105
2016-11-10T11:38:22.859Z,100
2016-11-10T11:39:22.881Z,95
2016-11-10T11:40:22.860Z,90
2016-11-10T11:41:22.786Z,90
2016-11-10T11:42:22.814Z,95
2016-11-10T11:43:22.757Z,100
2016-11-10T11:44:23.002Z,105
2016-11-10T11:45:23.333Z,105
2016-11-10T11:46:22.812Z,105
2016-11-10T11:47:23.169Z,100
2016-11-10T11:48:22.773Z,95
2016-11-10T11:49:22.806Z,95
2016-11-10T11:50:22.781Z,90
2016-11-10T11:51:22.802Z,85
2016-11-10T11:52:22.815Z,75
2016-11-10T11:53:22.892Z,70
2016-11-10T11:54:22.851Z,65
2016-11-10T11:55:22.829Z,65
2016-11-10T11:56:22.812Z,60
2016-11-10T11:57:22.776Z,60
2016-11-10T11:58:23.223Z,65
2016-11-10T11:59:22.805Z,70
2016-11-10T12:00:22.778Z,75
2016-11-10T12:01:22.835Z,80
2016-11-10T12:02:22.790Z,85
2016-11-10T12:03:22.833Z,85
2016-11-10T12:04:22.815Z,80
2016-11-10T12:05:22.867Z,75
2016-11-10T12:06:22.808Z,75
2016-11-10T12:07:22.839Z,75
2016-11-10T12:08:22.845Z,70
2016-11-10T12:09:22.895Z,70
2016-11-10T12:10:22.871Z,70
2016-11-10T12:11:22.864Z,70
2016-11-10T12:12:22.815Z,65
2016-11-10T12:13:22.860Z,65
2016-11-10T12:14:22.846Z,65
2016-11-10T12:15:22.852Z,60
2016-11-10T12:16:22.880Z,60
2016-11-10T12:17:22.844Z,55
2016-11-10T12:18:22.854Z,55
2016-11-10T12:19:22.860Z,60
2016-11-10T12:20:22.839Z,60
2016-11-10T12:21:22.804Z,60
2016-11-10T12:22:22.817Z,60
2016-11-10T12:23:22.790Z,60
2016-11-10T12:24:22.851Z,60
2016-11-10T12:25:22.753Z,65
2016-11-10T12:26:22.809Z,65
2016-11-10T12:27:22.852Z,70
2016-11-10T12:28:22.818Z,75
2016-11-10T12:29:22.829Z,80
2016-11-10T12:30:22.830Z,80
2016-11-10T12:31:22.895Z,75
2016-11-10T12:32:22.899Z,70
2016-11-10T12:33:23.503Z,70
2016-11-10T12:34:22.991Z,70
2016-11-10T12:35:22.868Z,70
2016-11-10T12:36:22.866Z,70
2016-11-10T12:37:22.799Z,75
2016-11-10T12:38:22.880Z,80
2016-11-10T12:39:22.874Z,85
2016-11-10T12:40:22.898Z,90
2016-11-10T12:41:22.935Z,90
2016-11-10T12:42:22.928Z,90
2016-11-10T12:43:22.831Z,90
2016-11-10T12:44:22.854Z,85
2016-11-10T12:45:22.867Z,90
2016-11-10T12:46:22.851Z,90
2016-11-10T12:47:23.417Z,85
2016-11-10T12:48:22.819Z,80
2016-11-10T12:49:22.815Z,75
2016-11-10T12:50:22.852Z,75
2016-11-10T12:51:22.796Z,75
2016-11-10T12:52:22.851Z,75
2016-11-10T12:53:22.822Z,75
2016-11-10T12:54:22.921Z,75
2016-11-10T12:55:22.857Z,75
2016-11-10T12:56:22.888Z,70
2016-11-10T12:57:22.868Z,70
2016-11-10T12:58:22.844Z,75
2016-11-10T12:59:22.980Z,75
2016-11-10T13:00:22.867Z,75
2016-11-10T13:01:22.841Z,75
2016-11-10T13:02:22.891Z,80
2016-11-10T13:03:22.874Z,80
2016-11-10T13:04:22.871Z,75
2016-11-10T13:05:22.811Z,70
2016-11-10T13:06:22.899Z,65
2016-11-10T13:07:22.965Z,60
2016-11-10T13:08:22.858Z,55
2016-11-10T13:09:22.867Z,50
2016-11-10T13:10:22.872Z,50
2016-11-10T13:11:22.928Z,50
2016-11-10T13:12:22.923Z,50
2016-11-10T13:13:22.917Z,50
2016-11-10T13:14:22.965Z,50
2016-11-10T13:15:22.919Z,45
2016-11-10T13:16:22.875Z,45
2016-11-10T13:17:22.964Z,45
2016-11-10T13:18:22.928Z,40
2016-11-10T13:19:23.015Z,40
2016-11-10T13:20:22.918Z,35
2016-11-10T13:21:22.931Z,35
2016-11-10T13:22:22.867Z,35
2016-11-10T13:23:22.915Z,35
2016-11-10T13:24:22.852Z,35
2016-11-10T13:25:22.845Z,35
2016-11-10T13:26:22.919Z,35
2016-11-10T13:27:22.863Z,35
2016-11-10T13:28:22.877Z,35
2016-11-10T13:29:22.914Z,40
2016-11-10T13:30:26.641Z,40
2016-11-10T13:31:24.932Z,35
2016-11-10T13:32:26.996Z,35
2016-11-10T13:33:26.029Z,40
2016-11-10T13:34:33.463Z,55
2016-11-10T13:35:26.508Z,55
2016-11-10T13:36:31.813Z,55
2016-11-10T13:37:30.520Z,55
2016-11-10T13:38:32.286Z,55
2016-11-10T13:39:23.088Z,55
2016-11-10T13:40:23.145Z,55
2016-11-10T13:41:23.032Z,60
2016-11-10T13:42:22.989Z,55
2016-11-10T13:43:23.140Z,55
2016-11-10T13:44:23.474Z,60
2016-11-10T13:45:23.041Z,70
2016-11-10T13:46:23.054Z,75
2016-11-10T13:47:23.041Z,75
2016-11-10T13:48:23.086Z,70
2016-11-10T13:49:23.099Z,70
2016-11-10T13:50:23.003Z,75
2016-11-10T13:51:22.914Z,75
2016-11-10T13:52:23.038Z,80
2016-11-10T13:53:22.898Z,80
2016-11-10T13:54:22.969Z,75
2016-11-10T13:55:22.930Z,70
2016-11-10T13:56:22.890Z,65
2016-11-10T13:57:22.850Z,65
2016-11-10T13:58:23.342Z,65
2016-11-10T13:59:22.978Z,70
2016-11-10T14:00:23.083Z,65
2016-11-10T14:01:23.079Z,55
2016-11-10T14:02:22.974Z,55
2016-11-10T14:03:23.051Z,55
2016-11-10T14:04:23.105Z,60
2016-11-10T14:05:23.021Z,60
2016-11-10T14:06:22.936Z,65
2016-11-10T14:07:23.041Z,65
2016-11-10T14:08:23.020Z,65
2016-11-10T14:09:23.103Z,60
2016-11-10T14:10:23.650Z,60
2016-11-10T14:11:22.980Z,60
2016-11-10T14:12:22.946Z,60
2016-11-10T14:13:23.108Z,60
2016-11-10T14:14:23.172Z,60
2016-11-10T14:15:22.997Z,55
2016-11-10T14:16:23.073Z,55
2016-11-10T14:17:23.107Z,55
2016-11-10T14:18:22.945Z,60
2016-11-10T14:19:23.107Z,55
2016-11-10T14:20:23.187Z,50
2016-11-10T14:21:22.971Z,45
2016-11-10T14:22:22.983Z,45
2016-11-10T14:23:22.993Z,45
2016-11-10T14:24:23.068Z,45
2016-11-10T14:25:23.000Z,40
2016-11-10T14:26:23.026Z,40
2016-11-10T14:27:23.070Z,40
2016-11-10T14:28:22.990Z,40
2016-11-10T14:29:23.109Z,40